Time;durP1;ratioP1;P1;durP2;ratioP2;P2;SDS_P1;SDS_P2;PMS_P1;PMS_P2;Temp;Humidity;BMP_temperature;BMP_pressure;BME280_temperature;BME280_humidity;BME280_pressure;Samples;Min_cycle;Max_cycle;Signal;HPM_P1;HPM_P2
2022/07/31 00:01:13;;;;;;;15.40;8.20;;;;;;;24.36;54.97;100218.94;124225;1099;104230;-76
2022/07/31 00:03:45;;;;;;;20.33;8.67;;;;;;;24.34;55.26;100209.16;124226;1099;104168;-78
2022/07/31 00:06:17;;;;;;;17.02;8.35;;;;;;;24.30;55.27;100207.49;124246;1099;104166;-79
2022/07/31 00:08:45;;;;;;;15.87;8.23;;;;;;;24.28;54.99;100212.89;124245;1099;104408;-77
2022/07/31 00:11:14;;;;;;;15.43;7.80;;;;;;;24.26;55.04;100213.84;124245;1099;102804;-78
2022/07/31 00:13:43;;;;;;;18.70;8.10;;;;;;;24.23;55.44;100214.79;124260;1099;104248;-77
2022/07/31 00:16:12;;;;;;;15.15;8.10;;;;;;;24.21;55.30;100208.59;124271;1099;104271;-78
2022/07/31 00:18:40;;;;;;;20.63;8.30;;;;;;;24.19;55.16;100215.80;124248;1102;104169;-78
2022/07/31 00:21:09;;;;;;;16.37;8.50;;;;;;;24.15;55.47;100209.66;124189;1102;104239;-78
2022/07/31 00:23:39;;;;;;;16.43;8.80;;;;;;;24.13;55.48;100216.83;124298;1102;104166;-77
2022/07/31 00:26:08;;;;;;;18.10;8.93;;;;;;;24.09;55.47;100212.48;124220;1100;104230;-77
2022/07/31 00:28:38;;;;;;;14.80;8.43;;;;;;;24.05;55.56;100214.33;124233;1099;104345;-78
2022/07/31 00:31:07;;;;;;;15.27;8.43;;;;;;;24.03;55.49;100216.19;124193;1099;104216;-77
2022/07/31 00:33:35;;;;;;;14.73;8.00;;;;;;;24.00;55.53;100213.58;124215;1099;104200;-78
2022/07/31 00:36:05;;;;;;;14.10;8.17;;;;;;;23.96;55.72;100206.52;124244;1099;103038;-77
2022/07/31 00:38:34;;;;;;;13.73;7.60;;;;;;;23.93;55.71;100205.72;124204;1099;102810;-77
2022/07/31 00:41:04;;;;;;;18.03;8.03;;;;;;;23.88;55.74;100200.47;124261;1099;102252;-78
2022/07/31 00:43:32;;;;;;;17.63;8.37;;;;;;;23.84;56.01;100198.77;124234;1099;104338;-77
2022/07/31 00:46:01;;;;;;;11.80;7.17;;;;;;;23.80;55.79;100195.27;124226;1099;104776;-78
2022/07/31 00:48:30;;;;;;;14.90;7.20;;;;;;;23.76;55.84;100192.69;124225;1099;102191;-77
2022/07/31 00:50:59;;;;;;;15.17;7.37;;;;;;;23.72;55.77;100191.89;124306;1099;102966;-77
2022/07/31 00:53:27;;;;;;;17.03;7.43;;;;;;;23.67;55.58;100181.28;124247;1099;104162;-78
2022/07/31 00:55:56;;;;;;;14.97;7.17;;;;;;;23.63;55.81;100184.07;124264;1099;104163;-77
2022/07/31 00:58:25;;;;;;;18.23;7.53;;;;;;;23.59;55.75;100188.63;124227;1102;102338;-77
2022/07/31 01:00:54;;;;;;;13.37;7.13;;;;;;;23.55;55.97;100184.25;124287;1102;104510;-77
2022/07/31 01:03:23;;;;;;;15.77;7.20;;;;;;;23.51;55.79;100185.22;124266;1102;102778;-77
2022/07/31 01:05:52;;;;;;;13.90;6.90;;;;;;;23.47;55.78;100188.91;124227;1102;104159;-77
2022/07/31 01:08:21;;;;;;;15.43;7.30;;;;;;;23.43;56.10;100195.23;124265;1102;104186;-78
2022/07/31 01:10:57;;;;;;;15.57;7.30;;;;;;;23.40;55.67;100197.98;124244;1099;104389;-78
2022/07/31 01:13:32;;;;;;;11.37;7.03;;;;;;;23.38;55.83;100200.69;124175;1103;102283;-77
2022/07/31 01:16:02;;;;;;;13.50;7.07;;;;;;;23.35;56.05;100195.39;124210;1099;104166;-78
2022/07/31 01:18:34;;;;;;;15.07;6.63;;;;;;;23.32;55.50;100201.69;124249;1102;102788;-78
2022/07/31 01:21:07;;;;;;;13.00;7.03;;;;;;;23.30;55.65;100199.98;124211;1103;102864;-77
2022/07/31 01:24:08;;;;;;;11.43;6.53;;;;;;;23.26;55.79;100201.82;124217;1102;104274;-77
2022/07/31 01:27:02;;;;;;;15.13;6.80;;;;;;;23.23;55.65;100207.23;124177;1102;102791;-78
2022/07/31 01:29:36;;;;;;;13.87;7.30;;;;;;;23.21;55.89;100209.08;124246;1099;104231;-77
2022/07/31 01:32:08;;;;;;;16.82;8.00;;;;;;;23.19;55.78;100213.59;124231;1102;104275;-77
2022/07/31 01:34:46;;;;;;;14.43;6.70;;;;;;;23.17;55.75;100211.84;124289;1099;103056;-77
2022/07/31 01:37:22;;;;;;;13.80;6.53;;;;;;;23.14;55.59;100210.14;124226;1102;104226;-78
2022/07/31 01:39:57;;;;;;;12.90;6.57;;;;;;;23.15;55.33;100211.88;124183;1102;104229;-77
2022/07/31 01:42:28;;;;;;;10.77;6.50;;;;;;;23.13;55.33;100200.34;124239;1102;102794;-77
2022/07/31 01:44:59;;;;;;;12.50;6.77;;;;;;;23.11;55.46;100204.84;124300;1102;102079;-78
2022/07/31 01:47:30;;;;;;;14.10;6.63;;;;;;;23.11;55.41;100196.82;124220;1102;103249;-77
2022/07/31 01:50:02;;;;;;;16.17;6.93;;;;;;;23.11;55.43;100195.02;124194;1102;104395;-77
2022/07/31 01:52:33;;;;;;;14.70;7.60;;;;;;;23.09;55.51;100193.27;124236;1102;102958;-77
2022/07/31 01:55:03;;;;;;;13.47;6.93;;;;;;;23.07;55.93;100197.75;124210;1102;104162;-77
2022/07/31 01:57:33;;;;;;;15.63;7.60;;;;;;;23.05;55.38;100191.56;124216;1102;102052;-77
2022/07/31 02:00:07;;;;;;;15.55;7.70;;;;;;;23.02;55.08;100187.14;124261;1102;104355;-77
2022/07/31 02:02:46;;;;;;;13.40;7.27;;;;;;;23.01;55.36;100193.40;124147;1102;104345;-77
2022/07/31 02:05:17;;;;;;;15.17;7.10;;;;;;;23.00;55.07;100180.95;124220;1102;104224;-78
2022/07/31 02:07:47;;;;;;;12.63;7.40;;;;;;;22.97;55.15;100184.56;124207;1102;102742;-77
2022/07/31 02:10:18;;;;;;;15.50;7.50;;;;;;;22.96;55.45;100185.46;124234;1103;102826;-77
2022/07/31 02:12:48;;;;;;;17.13;7.23;;;;;;;22.95;55.67;100175.70;124226;1102;104188;-77
2022/07/31 02:15:18;;;;;;;16.30;7.25;;;;;;;22.94;55.41;100184.62;124177;1102;104599;-77
2022/07/31 02:17:49;;;;;;;14.07;7.23;;;;;;;22.92;55.50;100186.45;124208;1102;104159;-77
2022/07/31 02:20:39;;;;;;;15.73;7.37;;;;;;;22.88;55.52;100179.39;124075;1101;103357;-78
2022/07/31 02:23:08;;;;;;;14.87;7.37;;;;;;;22.87;55.50;100182.10;124236;1102;104297;-77
2022/07/31 02:25:39;;;;;;;15.03;7.30;;;;;;;22.86;55.58;100193.70;124230;1102;103083;-77
2022/07/31 02:28:10;;;;;;;17.57;8.03;;;;;;;22.83;55.76;100197.34;124188;1102;102828;-78
2022/07/31 02:30:42;;;;;;;16.47;7.83;;;;;;;22.82;55.75;100194.70;124284;1099;104185;-77
2022/07/31 02:33:15;;;;;;;15.37;7.80;;;;;;;22.81;55.36;100201.81;124284;1102;103258;-78
2022/07/31 02:35:44;;;;;;;;;;;;;;;22.78;55.67;100199.20;124263;1099;104187;-78
2022/07/31 02:38:16;;;;;;;17.53;8.30;;;;;;;22.77;55.52;100200.13;124274;1102;104159;-78
2022/07/31 02:40:45;;;;;;;16.80;8.20;;;;;;;22.76;55.47;100195.69;124197;1101;103264;-77
2022/07/31 02:43:17;;;;;;;15.50;8.23;;;;;;;22.73;55.27;100199.28;124207;1102;104278;-77
2022/07/31 02:45:47;;;;;;;18.70;8.80;;;;;;;22.72;55.51;100199.31;124229;1099;102813;-77
2022/07/31 02:48:16;;;;;;;17.83;8.63;;;;;;;22.71;55.69;100197.58;124230;1102;104201;-78
2022/07/31 02:50:48;;;;;;;17.63;8.73;;;;;;;22.70;55.94;100201.15;124222;1102;102293;-77
2022/07/31 02:53:19;;;;;;;18.57;8.63;;;;;;;22.70;55.64;100209.17;124209;1102;104289;-76
2022/07/31 02:55:50;;;;;;;16.97;8.83;;;;;;;22.68;55.67;100209.20;124183;1102;104112;-77
2022/07/31 02:58:19;;;;;;;16.93;8.67;;;;;;;22.66;55.35;100203.02;124188;1102;104204;-78
2022/07/31 03:00:57;;;;;;;20.17;9.20;;;;;;;22.66;55.33;100200.34;124209;1102;104227;-78
2022/07/31 03:03:25;;;;;;;20.33;9.10;;;;;;;22.65;55.49;100198.56;124144;1102;104306;-77
2022/07/31 03:05:54;;;;;;;18.60;9.27;;;;;;;22.64;55.82;100195.92;124062;1102;102359;-77
2022/07/31 03:08:23;;;;;;;16.17;8.73;;;;;;;22.64;55.90;100201.27;124231;1102;102830;-77
2022/07/31 03:10:54;;;;;;;16.35;8.85;;;;;;;22.63;55.76;100203.06;124135;1102;113059;-77
2022/07/31 03:13:26;;;;;;;18.30;8.37;;;;;;;22.63;55.59;100196.84;124206;1103;102377;-77
2022/07/31 03:15:56;;;;;;;17.13;8.83;;;;;;;22.62;55.76;100195.95;124205;1102;103178;-77
2022/07/31 03:18:26;;;;;;;17.73;8.90;;;;;;;22.62;56.00;100187.92;124173;1102;104271;-78
2022/07/31 03:20:56;;;;;;;18.07;8.93;;;;;;;22.64;55.69;100190.56;124108;1102;104951;-78
2022/07/31 03:23:35;;;;;;;20.63;9.03;;;;;;;22.57;55.84;100177.31;124087;1102;103006;-77
2022/07/31 03:26:08;;;;;;;19.40;9.23;;;;;;;22.63;55.83;100188.83;124981;1102;104339;-77
2022/07/31 03:28:37;;;;;;;16.70;9.40;;;;;;;22.61;55.90;100179.03;124281;1102;104376;-77
2022/07/31 03:31:14;;;;;;;17.40;9.73;;;;;;;22.61;55.76;100181.70;124299;1102;104241;-77
2022/07/31 03:33:43;;;;;;;18.27;8.87;;;;;;;22.63;55.54;100186.16;124240;1102;104211;-78
2022/07/31 03:36:12;;;;;;;19.00;8.97;;;;;;;22.64;56.09;100180.77;124197;1100;104490;-78
2022/07/31 03:38:41;;;;;;;20.77;9.33;;;;;;;22.67;56.19;100185.16;124232;1102;104700;-77
2022/07/31 03:41:11;;;;;;;19.37;9.00;;;;;;;22.67;55.53;100191.38;124219;1099;104172;-78
2022/07/31 03:43:42;;;;;;;17.23;9.23;;;;;;;22.67;56.02;100180.69;124225;1099;104159;-77
2022/07/31 03:46:13;;;;;;;19.07;9.03;;;;;;;22.68;55.69;100186.94;124220;1102;104178;-78
2022/07/31 03:48:42;;;;;;;19.17;10.10;;;;;;;22.68;55.78;100181.59;124249;1102;104153;-79
2022/07/31 03:51:12;;;;;;;19.47;9.80;;;;;;;22.67;56.17;100180.69;124274;1102;104329;-78
2022/07/31 03:53:45;;;;;;;19.10;10.65;;;;;;;22.68;56.14;100181.59;124320;1102;104150;-78
2022/07/31 03:56:33;;;;;;;19.17;10.13;;;;;;;22.68;55.82;100182.45;124266;1099;104159;-78
2022/07/31 03:59:04;;;;;;;19.33;10.40;;;;;;;22.71;56.40;100181.53;124297;1102;104288;-79
2022/07/31 04:01:42;;;;;;;22.73;9.60;;;;;;;22.74;55.95;100179.66;124291;1099;104204;-78
2022/07/31 04:04:17;;;;;;;18.00;9.77;;;;;;;22.81;55.90;100177.74;124197;1102;104223;-77
2022/07/31 04:06:58;;;;;;;18.25;10.30;;;;;;;22.87;55.92;100172.27;124306;1102;104232;-77
2022/07/31 04:09:28;;;;;;;19.77;10.03;;;;;;;22.95;56.36;100181.05;124193;1102;104197;-77
2022/07/31 04:11:57;;;;;;;18.27;10.03;;;;;;;23.01;56.41;100176.47;124190;1100;104156;-77
2022/07/31 04:14:26;;;;;;;20.83;10.37;;;;;;;23.08;55.85;100175.45;124244;1102;104217;-77
2022/07/31 04:16:55;;;;;;;20.90;10.70;;;;;;;23.17;56.07;100174.38;124212;1102;104179;-77
2022/07/31 04:19:25;;;;;;;19.67;9.50;;;;;;;23.25;56.37;100165.28;124253;1102;102123;-77
2022/07/31 04:21:54;;;;;;;21.90;10.60;;;;;;;23.35;55.79;100162.41;124289;1099;104340;-77
2022/07/31 04:24:23;;;;;;;20.40;10.13;;;;;;;23.41;56.03;100163.14;124247;1102;104189;-77
2022/07/31 04:27:10;;;;;;;19.67;9.90;;;;;;;23.50;55.91;100159.38;124246;1099;102861;-78
2022/07/31 04:29:42;;;;;;;22.20;11.30;;;;;;;23.57;55.70;100157.43;125017;1102;102491;-78
2022/07/31 04:32:12;;;;;;;21.13;11.23;;;;;;;23.60;55.89;100152.87;124395;1099;104169;-79
2022/07/31 04:34:47;;;;;;;19.33;10.73;;;;;;;23.63;55.78;100158.16;124898;1102;104402;-79
2022/07/31 04:37:16;;;;;;;21.40;11.53;;;;;;;23.63;55.76;100155.48;125037;1102;104237;-79
2022/07/31 04:39:45;;;;;;;20.40;11.43;;;;;;;23.66;55.51;100158.09;125030;1099;101912;-78
2022/07/31 04:42:14;;;;;;;22.50;12.43;;;;;;;23.68;55.57;100152.70;124343;1102;104227;-79
2022/07/31 04:44:44;;;;;;;23.03;12.43;;;;;;;23.69;55.94;100151.78;125041;1102;104169;-79
2022/07/31 04:47:13;;;;;;;21.40;12.37;;;;;;;23.73;55.68;100152.59;125009;1102;104190;-76
2022/07/31 04:49:44;;;;;;;23.20;12.23;;;;;;;23.78;55.06;100156.92;124280;1102;104201;-76
2022/07/31 04:52:16;;;;;;;20.77;12.73;;;;;;;23.83;55.31;100151.45;124296;1102;102810;-76
2022/07/31 04:54:48;;;;;;;19.73;11.80;;;;;;;23.90;55.00;100155.76;124363;1102;104227;-76
2022/07/31 04:57:19;;;;;;;22.87;12.77;;;;;;;23.97;55.01;100152.02;124229;1102;102278;-77
2022/07/31 05:00:09;;;;;;;22.67;11.90;;;;;;;24.02;54.96;100155.45;124260;1102;104285;-78
2022/07/31 05:02:39;;;;;;;22.47;11.67;;;;;;;24.07;54.95;100159.83;124311;1102;104357;-77
2022/07/31 05:05:09;;;;;;;22.97;12.20;;;;;;;24.10;54.65;100154.39;124245;1102;102305;-77
2022/07/31 05:07:43;;;;;;;26.03;12.37;;;;;;;24.16;54.87;100154.23;124246;1102;104693;-77
2022/07/31 05:13:07;;;;;;;20.73;12.17;;;;;;;24.34;54.65;100153.75;124250;1102;104157;-77
2022/07/31 05:15:36;;;;;;;22.53;11.67;;;;;;;24.35;54.35;100165.34;125068;1102;104162;-77
2022/07/31 05:18:06;;;;;;;19.40;11.50;;;;;;;24.35;54.25;100163.53;124791;1102;104162;-77
2022/07/31 05:20:50;;;;;;;21.10;11.57;;;;;;;24.35;54.14;100157.30;124429;1102;104242;-77
2022/07/31 05:23:39;;;;;;;20.43;12.23;;;;;;;24.37;53.90;100160.81;124061;1103;118608;-77
2022/07/31 05:26:21;;;;;;;24.10;12.30;;;;;;;24.41;54.27;100158.01;124101;1102;104533;-77
2022/07/31 05:28:52;;;;;;;20.57;11.63;;;;;;;24.43;54.39;100157.09;124113;1102;104275;-78
2022/07/31 05:31:22;;;;;;;23.73;12.60;;;;;;;24.45;54.07;100156.14;124227;1101;104264;-78
2022/07/31 05:33:51;;;;;;;23.00;11.57;;;;;;;24.47;53.83;100151.61;124302;1102;102407;-78
2022/07/31 05:36:20;;;;;;;24.23;12.40;;;;;;;24.50;53.95;100150.66;124272;1102;104300;-77
2022/07/31 05:38:49;;;;;;;24.03;12.67;;;;;;;24.53;54.00;100151.45;124277;1102;102816;-78
2022/07/31 05:41:18;;;;;;;23.73;13.20;;;;;;;24.56;53.49;100153.17;124339;1102;102336;-78
2022/07/31 05:44:06;;;;;;;20.73;12.53;;;;;;;24.60;53.25;100157.54;124308;1102;112030;-78
2022/07/31 05:46:39;;;;;;;23.55;11.75;;;;;;;24.67;53.22;100158.27;124227;1102;104402;-78
2022/07/31 05:49:09;;;;;;;24.80;12.73;;;;;;;24.70;53.34;100161.74;124165;1102;104255;-78
2022/07/31 05:51:38;;;;;;;21.93;12.03;;;;;;;24.75;53.17;100153.56;124323;1102;104418;-79
2022/07/31 05:54:07;;;;;;;22.57;12.60;;;;;;;24.82;53.11;100155.13;124237;1102;104312;-78
2022/07/31 05:56:58;;;;;;;20.73;11.80;;;;;;;24.89;53.04;100156.72;124208;1102;102865;-78
2022/07/31 05:59:34;;;;;;;24.90;13.30;;;;;;;24.94;52.78;100156.59;124355;1099;103340;-78
2022/07/31 06:02:03;;;;;;;22.73;12.97;;;;;;;24.93;52.76;100161.09;124287;1102;102041;-77
2022/07/31 06:04:35;;;;;;;;;;;;;;;24.91;52.84;100156.67;124272;1102;109201;-79
2022/07/31 06:07:04;;;;;;;21.33;12.07;;;;;;;24.93;52.93;100160.19;125058;1102;104271;-78
2022/07/31 06:09:33;;;;;;;20.60;12.03;;;;;;;24.94;52.91;100154.77;124232;1102;104265;-78
2022/07/31 06:12:01;;;;;;;20.30;12.10;;;;;;;24.99;52.68;100151.95;124322;1102;104214;-78
2022/07/31 06:14:31;;;;;;;22.50;12.40;;;;;;;25.08;52.52;100154.38;124238;1102;102567;-78
2022/07/31 06:17:12;;;;;;;20.90;12.05;;;;;;;25.15;52.76;100144.34;124244;1102;104284;-77
2022/07/31 06:19:41;;;;;;;22.77;12.50;;;;;;;25.18;52.34;100151.41;124241;1102;104187;-78
2022/07/31 06:22:10;;;;;;;25.43;11.97;;;;;;;25.19;52.35;100153.19;124294;1099;104233;-78
2022/07/31 06:24:39;;;;;;;20.77;12.13;;;;;;;25.21;52.49;100151.32;124275;1102;102797;-78
2022/07/31 06:27:09;;;;;;;21.70;12.30;;;;;;;25.23;52.11;100144.98;124362;1102;102813;-77
2022/07/31 06:29:37;;;;;;;22.27;12.30;;;;;;;25.23;52.21;100141.44;124305;1102;104642;-78
2022/07/31 06:32:08;;;;;;;21.17;12.10;;;;;;;25.27;52.25;100146.66;124281;1103;104175;-78
2022/07/31 06:34:36;;;;;;;24.77;12.90;;;;;;;25.39;51.88;100140.05;125046;1102;104176;-78
2022/07/31 06:37:06;;;;;;;21.30;12.70;;;;;;;25.48;52.21;100147.81;124302;1099;104166;-78
2022/07/31 06:39:34;;;;;;;21.87;12.57;;;;;;;25.61;51.99;100144.73;124236;1102;103047;-78
2022/07/31 06:42:23;;;;;;;21.87;12.90;;;;;;;25.75;51.41;100131.73;124290;1099;102999;-78
2022/07/31 06:45:10;;;;;;;25.47;12.37;;;;;;;25.93;52.10;100132.03;124279;1102;102647;-77
2022/07/31 06:47:57;;;;;;;24.73;12.80;;;;;;;26.10;51.87;100139.56;124223;1102;104188;-78
2022/07/31 06:50:47;;;;;;;24.30;12.50;;;;;;;26.18;51.68;100133.00;124283;1102;103377;-78
2022/07/31 06:53:29;;;;;;;21.60;12.13;;;;;;;26.32;51.05;100123.59;124254;1100;102810;-78
2022/07/31 06:55:58;;;;;;;23.70;12.90;;;;;;;26.40;50.79;100125.97;124309;1101;104047;-79
2022/07/31 06:58:27;;;;;;;22.73;12.57;;;;;;;26.48;50.83;100119.39;124281;1102;104160;-78
2022/07/31 07:00:56;;;;;;;20.37;11.83;;;;;;;26.57;50.53;100111.91;124959;1102;104198;-78
2022/07/31 07:03:25;;;;;;;21.33;11.40;;;;;;;26.62;50.00;100110.82;124248;1099;102857;-78
2022/07/31 07:05:55;;;;;;;21.80;12.23;;;;;;;26.69;49.70;100119.56;124321;1102;102919;-78
2022/07/31 07:08:25;;;;;;;22.60;12.07;;;;;;;26.78;49.90;100113.84;124271;1102;104067;-78
2022/07/31 07:10:56;;;;;;;20.97;12.17;;;;;;;26.98;50.11;100112.22;125018;1102;104201;-78
2022/07/31 07:13:30;;;;;;;22.00;11.80;;;;;;;27.09;49.84;100116.23;125000;1102;104224;-78
2022/07/31 07:15:59;;;;;;;21.47;10.77;;;;;;;27.21;49.11;100116.72;124346;1099;104169;-78
2022/07/31 07:18:28;;;;;;;23.10;10.90;;;;;;;27.29;49.34;100116.41;124254;1102;103585;-78
2022/07/31 07:20:59;;;;;;;21.73;11.80;;;;;;;27.36;48.73;100109.86;124303;1102;104963;-78
2022/07/31 07:23:32;;;;;;;20.73;11.10;;;;;;;27.46;48.60;100107.66;124269;1102;104316;-78
2022/07/31 07:26:28;;;;;;;19.07;9.73;;;;;;;27.58;48.29;100113.45;125003;1102;111863;-79
2022/07/31 07:28:56;;;;;;;23.93;11.10;;;;;;;27.62;47.93;100106.97;125015;1102;104210;-77
2022/07/31 07:31:25;;;;;;;21.30;9.87;;;;;;;27.61;47.84;100102.55;124338;1102;104252;-79
2022/07/31 07:33:56;;;;;;;20.30;10.47;;;;;;;27.57;47.70;100106.30;124313;1100;102785;-78
2022/07/31 07:36:25;;;;;;;20.20;10.77;;;;;;;27.54;47.82;100106.42;124322;1102;102342;-78
2022/07/31 07:38:59;;;;;;;18.90;10.97;;;;;;;27.51;47.51;100101.16;124247;1102;104368;-78
2022/07/31 07:41:28;;;;;;;19.20;10.17;;;;;;;27.51;47.38;100103.84;124335;1102;102338;-78
2022/07/31 07:43:57;;;;;;;18.50;10.20;;;;;;;27.52;47.07;100097.53;124286;1102;103601;-78
2022/07/31 07:46:28;;;;;;;19.47;10.03;;;;;;;27.57;46.73;100094.65;124271;1102;103009;-78
2022/07/31 07:49:05;;;;;;;18.97;9.97;;;;;;;27.62;46.99;100093.50;124331;1102;104205;-78
2022/07/31 07:51:50;;;;;;;22.13;10.23;;;;;;;27.67;46.91;100095.14;124294;1102;104348;-79
2022/07/31 07:54:41;;;;;;;20.70;10.00;;;;;;;27.66;46.13;100087.98;124300;1102;104195;-78
2022/07/31 07:57:15;;;;;;;17.43;9.73;;;;;;;27.69;46.26;100085.16;124301;1102;119070;-78
2022/07/31 08:00:07;;;;;;;20.40;10.43;;;;;;;27.67;46.17;100087.91;124254;1102;104345;-78
2022/07/31 08:02:45;;;;;;;20.80;10.57;;;;;;;27.55;46.09;100083.94;125096;1102;104769;-78
2022/07/31 08:05:16;;;;;;;21.00;10.00;;;;;;;27.44;46.23;100088.86;124316;1102;103906;-78
2022/07/31 08:07:45;;;;;;;19.07;9.63;;;;;;;27.36;46.96;100089.20;124328;1102;102569;-78
2022/07/31 08:10:46;;;;;;;21.33;10.53;;;;;;;27.28;47.91;100090.41;124292;1102;104233;-79
2022/07/31 08:13:31;;;;;;;17.03;9.83;;;;;;;27.19;48.37;100084.45;124304;1102;104255;-78
2022/07/31 08:16:19;;;;;;;21.23;10.33;;;;;;;27.04;48.70;100085.06;124826;1099;104060;-79
2022/07/31 08:18:53;;;;;;;20.10;10.27;;;;;;;26.94;48.51;100089.03;125059;1102;103216;-78
2022/07/31 08:21:22;;;;;;;19.00;10.53;;;;;;;26.83;48.72;100093.03;125107;1099;104163;-78
2022/07/31 08:23:51;;;;;;;19.50;10.20;;;;;;;26.75;48.84;100087.05;125066;1101;104172;-79
2022/07/31 08:26:22;;;;;;;18.73;10.80;;;;;;;26.69;49.31;100085.48;125001;1102;104699;-78
2022/07/31 08:28:51;;;;;;;18.23;10.27;;;;;;;26.63;49.38;100088.37;124226;1102;104264;-78
2022/07/31 08:31:22;;;;;;;21.75;11.55;;;;;;;26.55;49.12;100090.44;124283;1102;104233;-79
2022/07/31 08:34:11;;;;;;;23.07;10.73;;;;;;;26.49;49.72;100087.98;125032;1101;104165;-79
2022/07/31 08:36:42;;;;;;;21.50;10.83;;;;;;;26.45;49.57;100102.50;124307;1102;104348;-79
2022/07/31 08:39:12;;;;;;;24.07;10.93;;;;;;;26.35;50.91;100107.31;125006;1102;104338;-79
2022/07/31 08:42:09;;;;;;;21.50;9.53;;;;;;;26.03;52.44;100101.27;125049;1099;104297;-79
2022/07/31 08:44:40;;;;;;;16.33;7.47;;;;;;;25.71;51.78;100088.89;125008;1098;104224;-79
2022/07/31 08:47:11;;;;;;;15.50;8.20;;;;;;;25.50;52.91;100091.36;124684;1102;104169;-79
2022/07/31 08:49:42;;;;;;;15.55;8.00;;;;;;;25.37;52.96;100074.78;124251;1102;104360;-79
2022/07/31 08:52:16;;;;;;;16.00;7.97;;;;;;;25.28;53.30;100075.03;124312;1100;104365;-80
2022/07/31 08:55:10;;;;;;;17.67;8.00;;;;;;;25.24;54.12;100073.36;124429;1102;104287;-80
2022/07/31 08:57:46;;;;;;;17.43;8.20;;;;;;;25.23;54.68;100072.50;125081;1102;102851;-80
2022/07/31 09:00:18;;;;;;;15.47;8.47;;;;;;;25.23;55.00;100072.50;125036;1099;104195;-82
2022/07/31 09:02:47;;;;;;;17.13;8.63;;;;;;;25.28;55.70;100075.94;125020;1102;103510;-81
2022/07/31 09:05:31;;;;;;;19.27;9.27;;;;;;;25.39;56.22;100066.67;124969;1099;102772;-80
2022/07/31 09:08:06;;;;;;;16.83;9.10;;;;;;;25.48;56.19;100061.00;125027;1099;104245;-80
2022/07/31 09:10:40;;;;;;;15.93;9.43;;;;;;;25.62;56.55;100057.86;125036;1099;104190;-81
2022/07/31 09:13:18;;;;;;;19.93;9.80;;;;;;;25.74;56.59;100061.91;125021;1099;104248;-81
2022/07/31 09:15:49;;;;;;;19.17;8.67;;;;;;;25.90;56.59;100055.09;125072;1099;104233;-81
2022/07/31 09:18:23;;;;;;;17.80;8.93;;;;;;;26.07;57.15;100059.02;124928;1100;104163;-80
2022/07/31 09:21:05;;;;;;;17.32;9.18;;;;;;;26.26;57.12;100054.75;125019;1102;104193;-80
2022/07/31 09:23:45;;;;;;;19.90;8.95;;;;;;;26.43;57.29;100061.30;125076;1102;102041;-81
2022/07/31 09:26:22;;;;;;;17.95;8.90;;;;;;;26.61;57.19;100048.99;125064;1102;102298;-81
2022/07/31 09:29:07;;;;;;;19.17;9.87;;;;;;;26.69;57.12;100046.91;125013;1102;103047;-82
2022/07/31 09:31:40;;;;;;;16.13;8.63;;;;;;;26.69;57.44;100047.81;125036;1102;102030;-81
2022/07/31 09:34:29;;;;;;;16.87;8.93;;;;;;;26.70;57.23;100044.16;125031;1102;103748;-81
2022/07/31 09:37:17;;;;;;;16.60;8.70;;;;;;;26.75;56.84;100041.30;125027;1102;104294;-81
2022/07/31 09:40:38;;;;;;;19.48;8.65;;;;;;;26.81;56.83;100037.50;125026;1099;104171;-81
2022/07/31 09:43:46;;;;;;;15.87;7.60;;;;;;;26.89;56.31;100032.69;124978;1099;104181;-80
2022/07/31 09:46:17;;;;;;;17.03;8.47;;;;;;;26.94;56.46;100035.20;125025;1102;104751;-80
2022/07/31 09:48:51;;;;;;;18.47;8.80;;;;;;;26.93;56.40;100036.13;125037;1099;104231;-80
2022/07/31 09:51:20;;;;;;;16.83;8.70;;;;;;;26.94;56.47;100035.20;125042;1102;104165;-80
2022/07/31 09:53:54;;;;;;;16.53;8.20;;;;;;;27.01;56.26;100034.03;125054;1102;104189;-79
2022/07/31 09:56:45;;;;;;;15.75;8.20;;;;;;;27.10;56.50;100033.66;125090;1100;104181;-79
2022/07/31 09:59:14;;;;;;;14.03;7.90;;;;;;;27.22;56.14;100025.09;125079;1102;104339;-79
2022/07/31 10:01:47;;;;;;;14.03;8.20;;;;;;;27.36;56.64;100029.05;124910;1102;104361;-79
2022/07/31 10:04:16;;;;;;;;;;;;;;;27.43;56.28;100019.78;124875;1102;102800;-79
2022/07/31 10:06:48;;;;;;;13.57;8.13;;;;;;;27.57;55.98;100025.45;124877;1102;104251;-79
2022/07/31 10:09:20;;;;;;;20.13;9.53;;;;;;;27.61;55.72;100024.39;124956;1102;102997;-79
2022/07/31 10:12:13;;;;;;;18.53;9.10;;;;;;;27.71;55.48;100018.61;124896;1105;102353;-79
2022/07/31 10:14:44;;;;;;;17.03;9.20;;;;;;;27.75;55.18;100012.12;124882;1102;104165;-79
2022/07/31 10:17:19;;;;;;;17.60;9.70;;;;;;;27.75;55.70;100007.63;124812;1102;104619;-79
2022/07/31 10:20:01;;;;;;;18.70;9.07;;;;;;;27.79;55.53;99997.58;125042;1102;102203;-79
2022/07/31 10:22:52;;;;;;;17.13;9.00;;;;;;;27.84;55.40;100005.47;125065;1102;104313;-78
2022/07/31 10:25:27;;;;;;;18.30;9.00;;;;;;;27.90;55.14;100002.50;124879;1102;102623;-79
2022/07/31 10:27:59;;;;;;;18.33;9.80;;;;;;;27.90;54.90;99995.28;124837;1102;104240;-79
2022/07/31 10:30:29;;;;;;;19.97;9.50;;;;;;;27.94;54.65;99994.22;124939;1102;111080;-79
2022/07/31 10:33:05;;;;;;;16.13;9.20;;;;;;;28.00;54.42;99989.52;125059;1099;104207;-79
2022/07/31 10:36:05;;;;;;;17.93;8.83;;;;;;;28.08;54.84;99987.34;125027;1099;103205;-79
2022/07/31 10:39:00;;;;;;;16.60;9.00;;;;;;;28.11;54.61;99988.09;125000;1099;104200;-79
2022/07/31 10:41:51;;;;;;;16.20;9.13;;;;;;;28.14;54.64;99987.96;125048;1099;104169;-80
2022/07/31 10:44:33;;;;;;;17.00;9.60;;;;;;;28.13;54.45;99983.50;125042;1099;102812;-77
2022/07/31 10:47:20;;;;;;;23.33;11.67;;;;;;;28.16;54.78;99985.20;125057;1102;104165;-79
2022/07/31 10:50:05;;;;;;;27.57;14.27;;;;;;;28.21;54.26;99987.69;125018;1102;104223;-79
2022/07/31 10:52:46;;;;;;;26.63;13.67;;;;;;;28.29;54.35;99991.77;125043;1102;104054;-79
2022/07/31 10:55:28;;;;;;;27.67;14.40;;;;;;;28.37;54.00;99986.02;125075;1103;104165;-80
2022/07/31 10:58:18;;;;;;;27.40;13.60;;;;;;;28.50;53.92;99978.21;125113;1099;104057;-79
2022/07/31 11:01:03;;;;;;;20.40;9.17;;;;;;;28.64;53.49;99980.30;125139;1099;104294;-78
2022/07/31 11:03:45;;;;;;;15.27;7.47;;;;;;;28.80;52.51;99975.06;125102;1099;102804;-79
2022/07/31 11:06:40;;;;;;;14.07;6.73;;;;;;;28.98;51.66;99979.53;125094;1102;102855;-80
2022/07/31 11:09:29;;;;;;;13.40;6.35;;;;;;;29.13;50.64;99964.41;125035;1099;104306;-79
2022/07/31 11:12:21;;;;;;;13.60;5.97;;;;;;;29.36;50.55;99962.42;125011;1099;104376;-79
2022/07/31 11:15:24;;;;;;;13.37;5.33;;;;;;;29.56;48.53;99966.77;125019;1102;104284;-80
2022/07/31 11:18:15;;;;;;;14.43;5.10;;;;;;;29.72;47.52;99958.77;125198;1099;104225;-79
2022/07/31 11:21:01;;;;;;;11.13;5.17;;;;;;;29.83;46.69;99958.23;125799;1101;104794;-79
2022/07/31 11:23:32;;;;;;;10.27;4.97;;;;;;;29.89;46.54;99955.20;125171;1099;104255;-80
2022/07/31 11:26:03;;;;;;;10.47;5.00;;;;;;;29.80;45.12;99955.69;125186;1099;104166;-79
2022/07/31 11:28:32;;;;;;;15.03;5.30;;;;;;;29.85;45.17;99964.42;125168;1099;104175;-79
2022/07/31 11:31:03;;;;;;;10.97;5.23;;;;;;;29.78;44.89;99954.84;125204;1099;104214;-79
2022/07/31 11:33:34;;;;;;;10.80;5.27;;;;;;;29.68;44.61;99955.33;125055;1102;104418;-79
2022/07/31 11:36:09;;;;;;;10.17;5.90;;;;;;;29.50;44.25;99954.47;125212;1102;102887;-79